createdAt,value
2022-09-03T00:02:22.131Z,2.30
2022-09-03T00:05:11.427Z,1.90
2022-09-03T00:08:02.673Z,2.33
2022-09-03T00:10:35.479Z,1.83
2022-09-03T00:13:07.604Z,2.00
2022-09-03T00:15:36.227Z,1.70
2022-09-03T00:18:20.886Z,1.83
2022-09-03T00:20:58.716Z,1.90
2022-09-03T00:23:29.596Z,1.90
2022-09-03T00:26:12.327Z,2.08
2022-09-03T00:28:45.900Z,1.80
2022-09-03T00:31:20.496Z,1.70
2022-09-03T00:33:51.869Z,1.85
2022-09-03T00:36:34.167Z,1.70
2022-09-03T00:39:01.536Z,1.90
2022-09-03T00:41:46.352Z,1.77
2022-09-03T00:44:55.286Z,2.00
2022-09-03T00:47:29.958Z,1.92
2022-09-03T00:50:35.006Z,1.80
2022-09-03T00:53:28.516Z,1.60
2022-09-03T00:56:20.368Z,1.88
2022-09-03T00:59:08.831Z,1.92
2022-09-03T01:02:02.317Z,1.80
2022-09-03T01:05:00.448Z,1.83
2022-09-03T01:08:02.953Z,1.80
2022-09-03T01:10:51.028Z,1.60
2022-09-03T01:13:29.266Z,1.80
2022-09-03T01:16:26.254Z,1.80
2022-09-03T01:19:35.641Z,2.05
2022-09-03T01:22:44.869Z,1.95
2022-09-03T01:26:09.428Z,1.90
2022-09-03T01:28:54.750Z,1.45
2022-09-03T01:31:36.240Z,2.08
2022-09-03T01:34:11.447Z,1.83
2022-09-03T01:36:52.863Z,1.90
2022-09-03T01:39:45.114Z,1.63
2022-09-03T01:42:20.679Z,1.75
2022-09-03T01:45:21.457Z,1.70
2022-09-03T01:48:11.023Z,2.00
2022-09-03T01:51:00.198Z,1.70
2022-09-03T01:53:46.934Z,1.80
2022-09-03T01:56:44.417Z,1.70
2022-09-03T01:59:21.188Z,1.65
2022-09-03T02:02:20.146Z,1.50
2022-09-03T02:05:12.911Z,1.67
2022-09-03T02:07:44.295Z,1.60
2022-09-03T02:10:22.487Z,1.80
2022-09-03T02:12:56.746Z,1.92
2022-09-03T02:15:26.106Z,1.40
2022-09-03T02:17:57.420Z,1.70
2022-09-03T02:20:29.285Z,1.67
2022-09-03T02:22:58.156Z,1.80
2022-09-03T02:25:38.166Z,1.80
2022-09-03T02:28:16.999Z,1.70
2022-09-03T02:30:44.995Z,1.50
2022-09-03T02:33:12.712Z,1.60
2022-09-03T02:35:41.210Z,1.60
2022-09-03T02:38:18.275Z,1.60
2022-09-03T02:40:45.823Z,1.60
2022-09-03T02:43:27.534Z,1.70
2022-09-03T02:45:59.807Z,1.70
2022-09-03T02:48:27.894Z,1.65
2022-09-03T02:50:55.360Z,1.50
2022-09-03T02:53:22.767Z,1.60
2022-09-03T02:55:50.136Z,1.70
2022-09-03T02:58:17.466Z,1.52
2022-09-03T03:00:45.029Z,1.55
2022-09-03T03:03:12.283Z,1.70
2022-09-03T03:05:57.962Z,1.27
2022-09-03T03:08:28.794Z,1.48
2022-09-03T03:10:58.776Z,1.35
2022-09-03T03:13:27.776Z,1.42
2022-09-03T03:16:03.304Z,1.50
2022-09-03T03:18:30.625Z,1.50
2022-09-03T03:20:57.937Z,1.50
2022-09-03T03:23:25.183Z,1.70
2022-09-03T03:25:52.413Z,1.45
2022-09-03T03:28:20.615Z,1.40
2022-09-03T03:30:49.078Z,1.55
2022-09-03T03:33:16.507Z,1.60
2022-09-03T03:35:43.865Z,1.50
2022-09-03T03:38:11.122Z,1.35
2022-09-03T03:40:39.811Z,1.50
2022-09-03T03:43:07.129Z,1.85
2022-09-03T03:45:34.482Z,1.63
2022-09-03T03:48:01.961Z,1.80
2022-09-03T03:50:29.267Z,1.90
2022-09-03T03:53:00.700Z,1.42
2022-09-03T03:55:29.011Z,1.35
2022-09-03T03:58:02.289Z,1.33
2022-09-03T04:00:31.171Z,1.52
2022-09-03T04:02:59.862Z,1.70
2022-09-03T04:05:27.081Z,1.50
2022-09-03T04:08:02.867Z,1.50
2022-09-03T04:10:30.117Z,1.38
2022-09-03T04:12:57.333Z,1.58
2022-09-03T04:15:24.599Z,1.42
2022-09-03T04:17:54.958Z,1.70
2022-09-03T04:20:22.936Z,1.63
2022-09-03T04:22:51.989Z,1.45
2022-09-03T04:25:19.383Z,1.60
2022-09-03T04:27:46.630Z,1.55
2022-09-03T04:30:14.046Z,1.50
2022-09-03T04:32:53.977Z,1.48
2022-09-03T04:35:22.798Z,1.50
2022-09-03T04:37:50.201Z,1.70
2022-09-03T04:40:17.971Z,1.73
2022-09-03T04:42:45.252Z,1.60
2022-09-03T04:45:15.830Z,1.65
2022-09-03T04:47:43.144Z,1.58
2022-09-03T04:50:10.614Z,1.70
2022-09-03T04:52:38.451Z,1.38
2022-09-03T04:55:06.665Z,1.40
2022-09-03T04:57:37.874Z,1.40
2022-09-03T05:00:07.725Z,1.60
2022-09-03T05:02:35.061Z,1.67
2022-09-03T05:05:02.324Z,1.50
2022-09-03T05:07:38.449Z,1.70
2022-09-03T05:10:13.042Z,1.55
2022-09-03T05:12:40.307Z,1.90
2022-09-03T05:15:08.291Z,1.77
2022-09-03T05:17:37.758Z,1.70
2022-09-03T05:20:09.190Z,2.10
2022-09-03T05:22:36.427Z,1.88
2022-09-03T05:25:04.257Z,2.00
2022-09-03T05:27:32.400Z,2.22
2022-09-03T05:29:59.700Z,2.72
2022-09-03T05:32:28.678Z,2.33
2022-09-03T05:34:55.986Z,2.70
2022-09-03T05:37:23.467Z,2.50
2022-09-03T05:39:51.161Z,3.08
2022-09-03T05:42:18.498Z,3.08
2022-09-03T05:44:45.740Z,3.17
2022-09-03T05:47:12.970Z,2.83
2022-09-03T05:49:40.312Z,3.20
2022-09-03T05:52:08.508Z,3.60
2022-09-03T05:54:36.005Z,3.05
2022-09-03T05:57:03.959Z,3.28
2022-09-03T05:59:31.218Z,3.17
2022-09-03T06:02:00.282Z,3.40
2022-09-03T06:04:27.889Z,3.22
2022-09-03T06:06:56.171Z,3.90
2022-09-03T06:09:23.863Z,3.80
2022-09-03T06:11:52.629Z,3.53
2022-09-03T06:14:20.664Z,3.20
2022-09-03T06:16:50.167Z,3.30
2022-09-03T06:19:17.641Z,3.40
2022-09-03T06:21:46.815Z,3.67
2022-09-03T06:24:28.289Z,3.35
2022-09-03T06:26:57.091Z,3.20
2022-09-03T06:29:24.981Z,3.35
2022-09-03T06:31:52.462Z,3.13
2022-09-03T06:34:20.045Z,3.03
2022-09-03T06:36:47.350Z,3.50
2022-09-03T06:39:14.646Z,3.15
2022-09-03T06:41:42.029Z,2.90
2022-09-03T06:44:13.180Z,3.00
2022-09-03T06:46:43.945Z,2.55
2022-09-03T06:49:12.057Z,2.80
2022-09-03T06:51:39.483Z,2.60
2022-09-03T06:54:12.399Z,3.20
2022-09-03T06:56:41.523Z,2.53
2022-09-03T06:59:14.420Z,2.80
2022-09-03T07:01:45.400Z,2.70
2022-09-03T07:04:16.659Z,2.78
2022-09-03T07:06:45.297Z,2.60
2022-09-03T07:09:13.590Z,2.53
2022-09-03T07:11:47.110Z,2.63
2022-09-03T07:14:16.219Z,2.85
2022-09-03T07:16:43.868Z,2.72
2022-09-03T07:19:13.406Z,2.60
2022-09-03T07:21:46.749Z,3.03
2022-09-03T07:24:16.493Z,2.47
2022-09-03T07:26:46.363Z,2.88
2022-09-03T07:29:15.805Z,2.75
2022-09-03T07:31:44.262Z,2.63
2022-09-03T07:34:13.473Z,3.13
2022-09-03T07:36:43.331Z,3.08
2022-09-03T07:39:12.224Z,3.92
2022-09-03T07:41:42.730Z,3.42
2022-09-03T07:44:10.331Z,4.38
2022-09-03T07:46:38.851Z,4.47
2022-09-03T07:49:06.838Z,3.78
2022-09-03T07:51:37.049Z,3.88
2022-09-03T07:54:07.737Z,3.80
2022-09-03T07:56:36.130Z,3.70
2022-09-03T07:59:04.278Z,4.15
2022-09-03T08:01:32.972Z,4.10
2022-09-03T08:04:01.655Z,4.20
2022-09-03T08:06:30.712Z,4.38
2022-09-03T08:09:05.560Z,4.63
2022-09-03T08:11:36.808Z,4.07
2022-09-03T08:14:07.110Z,3.67
2022-09-03T08:16:48.808Z,4.32
2022-09-03T08:19:18.400Z,3.35
2022-09-03T08:21:45.979Z,3.97
2022-09-03T08:24:14.892Z,4.13
2022-09-03T08:26:46.299Z,4.18
2022-09-03T08:29:15.166Z,4.30
2022-09-03T08:31:43.079Z,4.50
2022-09-03T08:34:11.864Z,4.40
2022-09-03T08:36:41.403Z,4.90
2022-09-03T08:39:10.770Z,5.07
2022-09-03T08:41:53.011Z,4.68
2022-09-03T08:44:47.167Z,4.30
2022-09-03T08:47:23.286Z,4.23
2022-09-03T08:49:50.570Z,4.00
2022-09-03T08:52:39.429Z,4.18
2022-09-03T08:55:29.318Z,4.10
2022-09-03T08:58:22.267Z,3.85
2022-09-03T09:01:22.320Z,3.88
2022-09-03T09:04:06.800Z,3.08
2022-09-03T09:06:43.935Z,3.88
2022-09-03T09:09:26.553Z,3.42
2022-09-03T09:12:10.904Z,4.18
2022-09-03T09:15:11.943Z,4.03
2022-09-03T09:18:10.992Z,3.38
2022-09-03T09:21:08.142Z,3.78
2022-09-03T09:23:44.497Z,3.45
2022-09-03T09:26:15.990Z,3.45
2022-09-03T09:28:50.037Z,3.50
2022-09-03T09:31:21.591Z,3.22
2022-09-03T09:33:49.199Z,3.90
2022-09-03T09:36:19.490Z,3.55
2022-09-03T09:38:48.586Z,4.05
2022-09-03T09:41:19.481Z,3.92
2022-09-03T09:43:50.285Z,4.07
2022-09-03T09:46:34.574Z,3.88
2022-09-03T09:49:02.166Z,4.18
2022-09-03T09:51:31.415Z,4.22
2022-09-03T09:54:18.636Z,3.70
2022-09-03T09:56:46.985Z,4.40
2022-09-03T09:59:15.389Z,4.50
2022-09-03T10:01:45.233Z,4.32
2022-09-03T10:04:24.495Z,4.70
2022-09-03T10:07:24.293Z,4.90
2022-09-03T10:10:22.223Z,4.47
2022-09-03T10:13:05.885Z,4.53
2022-09-03T10:16:09.658Z,4.30
2022-09-03T10:19:03.320Z,4.75
2022-09-03T10:21:56.043Z,4.47
2022-09-03T10:24:41.717Z,4.72
2022-09-03T10:27:16.903Z,4.82
2022-09-03T10:29:44.601Z,4.53
2022-09-03T10:32:39.089Z,4.25
2022-09-03T10:35:11.897Z,5.20
2022-09-03T10:38:04.135Z,4.88
2022-09-03T10:40:37.792Z,4.07
2022-09-03T10:43:32.495Z,4.90
2022-09-03T10:46:06.792Z,4.13
2022-09-03T10:51:26.580Z,4.20
2022-09-03T10:54:33.051Z,4.45
2022-09-03T10:57:26.507Z,4.75
2022-09-03T11:00:14.623Z,4.63
2022-09-03T11:03:04.690Z,4.68
2022-09-03T11:06:03.054Z,4.47
2022-09-03T11:08:51.655Z,4.45
2022-09-03T11:11:35.243Z,5.10
2022-09-03T11:14:11.118Z,5.22
2022-09-03T11:16:52.867Z,5.13
2022-09-03T11:19:30.904Z,4.88
2022-09-03T11:21:58.568Z,5.15
2022-09-03T11:24:30.316Z,5.63
2022-09-03T11:27:20.007Z,4.97
2022-09-03T11:29:58.278Z,4.70
2022-09-03T11:32:28.035Z,5.40
2022-09-03T11:34:55.947Z,5.28
2022-09-03T11:37:26.445Z,5.32
2022-09-03T11:39:56.606Z,5.47
2022-09-03T11:42:50.446Z,5.95
2022-09-03T11:45:32.359Z,7.97
2022-09-03T11:47:59.862Z,7.35
2022-09-03T11:50:30.326Z,8.50
2022-09-03T11:53:16.402Z,8.45
2022-09-03T11:56:02.245Z,8.23
2022-09-03T11:58:36.749Z,9.55
2022-09-03T12:01:16.443Z,10.30
2022-09-03T12:03:58.916Z,10.45
2022-09-03T12:06:56.839Z,10.80
2022-09-03T12:09:55.163Z,11.25
2022-09-03T12:12:57.612Z,11.07
2022-09-03T12:15:28.003Z,11.05
2022-09-03T12:18:19.239Z,12.02
2022-09-03T12:21:09.024Z,11.55
2022-09-03T12:23:49.454Z,11.35
2022-09-03T12:26:23.851Z,10.93
2022-09-03T12:29:01.862Z,10.65
2022-09-03T12:31:32.022Z,9.18
2022-09-03T12:34:20.239Z,9.38
2022-09-03T12:36:53.294Z,9.50
2022-09-03T12:42:23.136Z,8.45
2022-09-03T12:44:50.479Z,9.30
2022-09-03T12:47:37.396Z,8.88
2022-09-03T12:50:11.629Z,10.25
2022-09-03T12:52:57.548Z,10.82
2022-09-03T12:55:33.751Z,10.73
2022-09-03T12:58:04.670Z,11.80
2022-09-03T13:00:36.210Z,11.45
2022-09-03T13:03:23.652Z,11.75
2022-09-03T13:05:59.526Z,8.75
2022-09-03T13:08:54.831Z,5.78
2022-09-03T13:11:24.611Z,5.70
2022-09-03T13:14:00.112Z,5.28
2022-09-03T13:16:45.608Z,4.25
2022-09-03T13:19:36.879Z,4.60
2022-09-03T13:22:33.551Z,4.03
2022-09-03T13:25:16.781Z,3.90
2022-09-03T13:28:06.310Z,2.75
2022-09-03T13:31:02.510Z,2.60
2022-09-03T13:33:35.423Z,2.70
2022-09-03T13:36:08.553Z,2.55
2022-09-03T13:38:45.457Z,2.40
2022-09-03T13:41:21.308Z,2.58
2022-09-03T13:44:11.513Z,2.47
2022-09-03T13:47:08.401Z,2.30
2022-09-03T13:50:00.925Z,3.15
2022-09-03T13:52:59.229Z,3.63
2022-09-03T13:55:35.570Z,4.20
2022-09-03T13:58:09.680Z,4.88
2022-09-03T14:01:22.335Z,4.15
2022-09-03T14:03:58.670Z,3.80
2022-09-03T14:06:58.973Z,3.10
2022-09-03T14:09:44.740Z,2.47
2022-09-03T14:12:46.922Z,2.25
2022-09-03T14:15:48.972Z,2.10
2022-09-03T14:18:35.002Z,1.88
2022-09-03T14:21:14.175Z,2.53
2022-09-03T14:23:46.643Z,2.28
2022-09-03T14:26:38.956Z,1.83
2022-09-03T14:29:14.997Z,1.90
2022-09-03T14:32:00.310Z,1.80
2022-09-03T14:34:36.677Z,1.80
2022-09-03T14:37:33.441Z,2.00
2022-09-03T14:40:05.843Z,1.88
2022-09-03T14:42:43.145Z,2.35
2022-09-03T14:45:21.327Z,2.50
2022-09-03T14:47:54.891Z,2.72
2022-09-03T14:50:51.193Z,2.67
2022-09-03T14:53:30.149Z,2.83
2022-09-03T14:56:06.449Z,2.60
2022-09-03T14:58:36.579Z,2.78
2022-09-03T15:01:38.649Z,3.20
2022-09-03T15:04:16.322Z,2.97
2022-09-03T15:07:16.633Z,3.30
2022-09-03T15:09:46.580Z,3.40
2022-09-03T15:12:13.771Z,2.83
2022-09-03T15:14:56.889Z,3.40
2022-09-03T15:17:42.845Z,3.35
2022-09-03T15:20:40.558Z,3.50
2022-09-03T15:23:47.185Z,3.50
2022-09-03T15:26:34.322Z,3.70
2022-09-03T15:29:22.155Z,3.78
2022-09-03T15:32:26.710Z,3.80
2022-09-03T15:35:08.263Z,3.60
2022-09-03T15:37:39.766Z,3.65
2022-09-03T15:40:17.284Z,4.03
2022-09-03T15:42:46.907Z,4.40
2022-09-03T15:45:44.821Z,4.15
2022-09-03T15:48:43.292Z,4.80
2022-09-03T15:51:23.275Z,4.32
2022-09-03T15:53:53.338Z,5.20
2022-09-03T15:56:38.886Z,4.20
2022-09-03T15:59:38.828Z,3.90
2022-09-03T16:02:28.082Z,3.65
2022-09-03T16:05:13.839Z,4.38
2022-09-03T16:08:02.930Z,5.47
2022-09-03T16:10:54.684Z,4.60
2022-09-03T16:13:53.972Z,5.22
2022-09-03T16:16:48.748Z,3.70
2022-09-03T16:19:34.305Z,3.90
2022-09-03T16:22:07.428Z,3.10
2022-09-03T16:25:08.817Z,2.72
2022-09-03T16:27:38.585Z,2.70
2022-09-03T16:30:13.140Z,2.65
2022-09-03T16:33:05.557Z,3.00
2022-09-03T16:35:51.093Z,3.33
2022-09-03T16:38:49.568Z,3.85
2022-09-03T16:41:18.586Z,3.53
2022-09-03T16:43:54.249Z,3.50
2022-09-03T16:46:35.642Z,2.50
2022-09-03T16:49:50.485Z,3.00
2022-09-03T16:52:37.899Z,3.08
2022-09-03T16:55:22.653Z,3.10
2022-09-03T16:58:01.327Z,2.80
2022-09-03T17:00:45.835Z,3.25
2022-09-03T17:06:21.379Z,3.03
2022-09-03T17:09:10.135Z,2.55
2022-09-03T17:11:58.732Z,2.53
2022-09-03T17:15:00.628Z,2.78
2022-09-03T17:17:44.057Z,2.75
2022-09-03T17:20:38.785Z,2.58
2022-09-03T17:23:09.853Z,2.85
2022-09-03T17:25:53.317Z,2.72
2022-09-03T17:28:43.543Z,2.75
2022-09-03T17:31:16.065Z,2.35
2022-09-03T17:33:49.198Z,2.60
2022-09-03T17:36:27.340Z,1.92
2022-09-03T17:39:22.135Z,2.83
2022-09-03T17:42:26.275Z,2.20
2022-09-03T17:45:34.097Z,2.28
2022-09-03T17:48:11.791Z,2.10
2022-09-03T17:50:59.269Z,2.20
2022-09-03T17:53:32.177Z,3.08
2022-09-03T17:56:10.029Z,13.32
2022-09-03T17:58:49.838Z,19.92
2022-09-03T18:01:21.399Z,22.30
2022-09-03T18:04:23.515Z,22.65
2022-09-03T18:07:06.063Z,22.45
2022-09-03T18:09:47.438Z,23.83
2022-09-03T18:15:11.913Z,19.33
2022-09-03T18:18:08.522Z,18.48
2022-09-03T18:21:22.303Z,15.10
2022-09-03T18:24:45.901Z,12.50
2022-09-03T18:27:58.688Z,9.73
2022-09-03T18:30:46.942Z,9.02
2022-09-03T18:33:36.484Z,8.23
2022-09-03T18:36:23.898Z,8.25
2022-09-03T18:39:10.698Z,7.00
2022-09-03T18:42:21.850Z,6.32
2022-09-03T18:45:33.266Z,6.05
2022-09-03T18:48:46.371Z,5.60
2022-09-03T18:51:46.768Z,4.95
2022-09-03T18:55:06.629Z,4.03
2022-09-03T18:58:11.657Z,4.40
2022-09-03T19:04:05.861Z,4.22
2022-09-03T19:07:12.916Z,4.60
2022-09-03T19:10:16.802Z,4.70
2022-09-03T19:13:23.582Z,4.22
2022-09-03T19:16:24.647Z,5.05
2022-09-03T19:19:22.480Z,5.20
2022-09-03T19:22:27.996Z,7.00
2022-09-03T19:25:30.462Z,6.55
2022-09-03T19:28:17.279Z,7.90
2022-09-03T19:31:30.037Z,8.68
2022-09-03T19:34:47.649Z,8.75
2022-09-03T19:38:04.885Z,8.57
2022-09-03T19:41:14.609Z,9.65
2022-09-03T19:44:37.057Z,10.35
2022-09-03T19:47:24.034Z,10.38
2022-09-03T19:50:28.402Z,10.52
2022-09-03T19:53:22.052Z,10.20
2022-09-03T19:56:12.912Z,9.88
2022-09-03T19:59:10.743Z,10.68
2022-09-03T20:01:57.398Z,11.25
2022-09-03T20:05:02.370Z,12.25
2022-09-03T20:07:48.575Z,13.20
2022-09-03T20:10:23.672Z,13.52
2022-09-03T20:13:16.062Z,12.43
2022-09-03T20:16:06.635Z,13.55
2022-09-03T20:18:54.570Z,13.00
2022-09-03T20:21:43.762Z,12.63
2022-09-03T20:24:28.084Z,13.57
2022-09-03T20:27:28.648Z,13.30
2022-09-03T20:30:01.638Z,13.05
2022-09-03T20:32:42.575Z,12.88
2022-09-03T20:35:30.953Z,13.35
2022-09-03T20:38:33.812Z,14.13
2022-09-03T20:41:15.521Z,13.93
2022-09-03T20:44:04.138Z,13.45
2022-09-03T20:46:46.547Z,13.65
2022-09-03T20:49:20.118Z,13.60
2022-09-03T20:52:13.849Z,14.70
2022-09-03T20:54:47.217Z,14.23
2022-09-03T20:57:26.471Z,14.00
2022-09-03T21:00:23.226Z,15.63
2022-09-03T21:03:03.396Z,14.45
2022-09-03T21:05:56.192Z,15.20
2022-09-03T21:08:47.906Z,14.63
2022-09-03T21:11:28.806Z,15.80
2022-09-03T21:14:17.431Z,15.10
2022-09-03T21:17:18.886Z,15.43
2022-09-03T21:20:14.299Z,14.18
2022-09-03T21:23:25.643Z,14.90
2022-09-03T21:26:17.127Z,14.13
2022-09-03T21:28:53.487Z,14.20
2022-09-03T21:31:30.753Z,13.55
2022-09-03T21:34:12.550Z,13.40
2022-09-03T21:36:42.773Z,13.82
2022-09-03T21:39:24.313Z,14.05
2022-09-03T21:42:42.155Z,12.73
2022-09-03T21:45:27.173Z,12.80
2022-09-03T21:48:35.704Z,12.98
2022-09-03T21:51:16.395Z,13.27
2022-09-03T21:53:57.909Z,13.65
2022-09-03T21:56:44.258Z,12.75
2022-09-03T21:59:19.641Z,13.40
2022-09-03T22:01:59.277Z,12.70
2022-09-03T22:04:27.343Z,12.85
2022-09-03T22:07:03.486Z,12.27
2022-09-03T22:10:20.247Z,12.85
2022-09-03T22:13:09.256Z,12.13
2022-09-03T22:15:39.668Z,12.40
2022-09-03T22:18:15.559Z,12.48
2022-09-03T22:20:52.762Z,12.23
2022-09-03T22:23:26.545Z,12.07
2022-09-03T22:26:10.841Z,11.43
2022-09-03T22:28:49.376Z,11.88
2022-09-03T22:31:38.993Z,10.95
2022-09-03T22:34:25.152Z,11.52
2022-09-03T22:36:59.496Z,10.88
2022-09-03T22:42:21.590Z,11.18
2022-09-03T22:45:07.897Z,10.38
2022-09-03T22:47:52.695Z,9.95
2022-09-03T22:50:46.757Z,10.15
2022-09-03T22:53:19.863Z,10.10
2022-09-03T22:55:59.172Z,9.05
2022-09-03T22:58:31.883Z,9.68
2022-09-03T23:01:10.790Z,9.73
2022-09-03T23:03:56.840Z,9.25
2022-09-03T23:06:36.399Z,8.30
2022-09-03T23:09:10.007Z,8.32
2022-09-03T23:11:43.830Z,8.70
2022-09-03T23:14:28.320Z,8.80
2022-09-03T23:17:03.362Z,8.10
2022-09-03T23:19:40.816Z,8.23
2022-09-03T23:22:17.916Z,7.68
2022-09-03T23:24:55.117Z,7.82
2022-09-03T23:27:36.819Z,7.93
2022-09-03T23:30:06.252Z,8.02
2022-09-03T23:32:34.188Z,7.95
2022-09-03T23:35:08.946Z,7.35
2022-09-03T23:37:36.194Z,8.35
2022-09-03T23:40:40.590Z,7.35
2022-09-03T23:43:37.385Z,7.03
2022-09-03T23:46:16.628Z,8.00
2022-09-03T23:48:58.129Z,7.47
2022-09-03T23:51:51.638Z,7.20
2022-09-03T23:54:47.802Z,7.50
2022-09-03T23:57:26.719Z,7.47
